logo
Search for airport 
image banner adimage banner adimage banner ad
image banner ad

CCD4 - Postville

Located in Postville, Canada

ICAO - CCD4, IATA - YSO

Data provided by Airmate  

General information

Coordinates: N54°54'37" W59°47'7"
Elevation is 223 feet MSL.
Magnetic variation is -22.1500° East
View others Airports in Newfoundland and Labrador

Operational data

Special qualification required
Current time UTC:
Current local time:
Weather at : CYFT - Makkovik ( 42 km )
METAR: CYFT 251832Z 25013G18KT 15SM -RA SCT035 OVC090 09/03 A3021 RMK SC3AS5 SLP236
View NOTAMs / SUP AIP / TFR affecting this airport [VIEW]
Communications frequencies: [VIEW]

Runways:

RWY identifierQFULength (ft)Width (ft)SurfaceLDA (ft)
0633°257675GRAVE2576
24213°257675GRAVE2576

Airport contact information

Address: Postville Canada

Satellite view of CCD4